createdAt,value
2019-05-29T00:00:10.097Z,8.53
2019-05-29T00:02:38.577Z,8.44
2019-05-29T00:05:08.089Z,8.40
2019-05-29T00:07:36.520Z,8.39
2019-05-29T00:10:08.786Z,8.42
2019-05-29T00:12:37.356Z,8.43
2019-05-29T00:15:06.313Z,8.53
2019-05-29T00:17:35.195Z,8.56
2019-05-29T00:20:04.262Z,8.58
2019-05-29T00:22:32.656Z,8.62
2019-05-29T00:25:01.055Z,8.66
2019-05-29T00:27:29.452Z,8.67
2019-05-29T00:29:57.855Z,8.61
2019-05-29T00:32:26.224Z,8.56
2019-05-29T00:34:55.318Z,8.42
2019-05-29T00:37:23.706Z,8.42
2019-05-29T00:39:52.091Z,8.46
2019-05-29T00:42:20.507Z,8.46
2019-05-29T00:44:48.896Z,8.41
2019-05-29T00:47:17.728Z,8.28
2019-05-29T00:49:46.697Z,8.19
2019-05-29T00:52:16.563Z,8.10
2019-05-29T00:54:45.111Z,8.04
2019-05-29T00:57:13.496Z,8.00
2019-05-29T00:59:41.886Z,7.97
2019-05-29T01:02:11.765Z,7.92
2019-05-29T01:04:40.263Z,7.83
2019-05-29T01:07:10.107Z,7.77
2019-05-29T01:09:38.719Z,7.75
2019-05-29T01:12:07.108Z,7.78
2019-05-29T01:14:49.171Z,7.81
2019-05-29T01:17:05.657Z,7.89
2019-05-29T01:19:34.392Z,7.86
2019-05-29T01:22:02.792Z,7.86
2019-05-29T01:24:31.260Z,7.85
2019-05-29T01:26:59.669Z,7.87
2019-05-29T01:29:28.069Z,7.91
2019-05-29T01:31:56.794Z,7.91
2019-05-29T01:34:25.204Z,7.92
2019-05-29T01:36:53.853Z,7.93
2019-05-29T01:39:23.532Z,7.91
2019-05-29T01:41:52.083Z,7.91
2019-05-29T01:44:21.458Z,7.86
2019-05-29T01:46:49.950Z,7.82
2019-05-29T01:49:19.508Z,7.83
2019-05-29T01:51:48.044Z,7.81
2019-05-29T01:54:17.540Z,7.79
2019-05-29T01:56:46.012Z,7.75
2019-05-29T01:59:15.613Z,7.73
2019-05-29T02:01:44.083Z,7.70
2019-05-29T02:04:12.577Z,7.65
2019-05-29T02:06:40.971Z,7.62
2019-05-29T02:09:09.747Z,7.59
2019-05-29T02:11:38.151Z,7.53
2019-05-29T02:14:06.581Z,7.45
2019-05-29T02:16:34.961Z,7.48
2019-05-29T02:19:03.390Z,7.45
2019-05-29T02:21:31.793Z,7.44
2019-05-29T02:24:00.189Z,7.44
2019-05-29T02:26:28.624Z,7.42
2019-05-29T02:28:57.021Z,7.42
2019-05-29T02:31:27.052Z,7.41
2019-05-29T02:33:56.157Z,7.38
2019-05-29T02:36:26.641Z,7.40
2019-05-29T02:38:54.705Z,7.37
2019-05-29T02:41:24.179Z,7.36
2019-05-29T02:43:53.227Z,7.33
2019-05-29T02:46:23.952Z,7.33
2019-05-29T02:48:52.728Z,7.34
2019-05-29T02:51:22.106Z,7.42
2019-05-29T02:53:50.629Z,7.44
2019-05-29T02:56:20.428Z,7.43
2019-05-29T02:58:49.140Z,7.44
2019-05-29T03:01:17.703Z,7.44
2019-05-29T03:03:46.098Z,7.39
2019-05-29T03:06:14.632Z,7.39
2019-05-29T03:08:42.978Z,7.39
2019-05-29T03:11:11.397Z,7.52
2019-05-29T03:13:39.808Z,7.54
2019-05-29T03:16:12.189Z,7.72
2019-05-29T03:18:38.324Z,7.85
2019-05-29T03:21:06.737Z,7.85
2019-05-29T03:23:36.639Z,7.76
2019-05-29T03:26:05.302Z,7.66
2019-05-29T03:28:35.101Z,7.59
2019-05-29T03:31:03.813Z,7.47
2019-05-29T03:33:41.132Z,7.37
2019-05-29T03:36:02.650Z,7.29
2019-05-29T03:38:32.730Z,7.24
2019-05-29T03:41:01.211Z,7.30
2019-05-29T03:43:31.181Z,7.45
2019-05-29T03:45:59.772Z,7.46
2019-05-29T03:48:29.662Z,7.42
2019-05-29T03:50:58.336Z,7.34
2019-05-29T03:53:27.148Z,7.28
2019-05-29T03:55:55.638Z,7.21
2019-05-29T03:58:24.044Z,7.12
2019-05-29T04:00:52.485Z,6.98
2019-05-29T04:03:20.874Z,6.98
2019-05-29T04:05:49.289Z,7.00
2019-05-29T04:08:17.695Z,7.01
2019-05-29T04:10:47.337Z,7.05
2019-05-29T04:13:15.806Z,7.06
2019-05-29T04:15:46.156Z,7.01
2019-05-29T04:18:19.510Z,6.88
2019-05-29T04:20:48.997Z,6.86
2019-05-29T04:23:19.469Z,6.86
2019-05-29T04:25:48.939Z,6.87
2019-05-29T04:28:17.783Z,6.89
2019-05-29T04:30:46.178Z,6.88
2019-05-29T04:33:14.842Z,6.95
2019-05-29T04:35:43.253Z,7.08
2019-05-29T04:38:11.664Z,7.29
2019-05-29T04:40:40.139Z,7.45
2019-05-29T04:43:08.553Z,7.55
2019-05-29T04:45:38.113Z,7.69
2019-05-29T04:48:07.091Z,7.81
2019-05-29T04:50:37.765Z,8.04
2019-05-29T04:53:05.708Z,8.20
2019-05-29T04:55:34.818Z,8.43
2019-05-29T04:58:03.198Z,8.69
2019-05-29T05:00:33.018Z,9.04
2019-05-29T05:03:01.453Z,9.34
2019-05-29T05:05:31.073Z,9.58
2019-05-29T05:07:59.644Z,9.96
2019-05-29T05:10:37.654Z,10.30
2019-05-29T05:13:06.779Z,10.65
2019-05-29T05:15:36.108Z,10.87
2019-05-29T05:18:06.284Z,11.02
2019-05-29T05:20:36.277Z,11.11
2019-05-29T05:23:05.735Z,11.19
2019-05-29T05:25:34.373Z,11.36
2019-05-29T05:28:02.838Z,11.65
2019-05-29T05:30:32.371Z,11.96
2019-05-29T05:33:01.051Z,12.04
2019-05-29T05:35:30.649Z,12.21
2019-05-29T05:37:59.168Z,12.46
2019-05-29T05:40:27.570Z,12.65
2019-05-29T05:42:56.302Z,12.66
2019-05-29T05:45:24.747Z,12.61
2019-05-29T05:47:57.240Z,12.46
2019-05-29T05:50:23.967Z,12.29
2019-05-29T05:52:52.366Z,12.33
2019-05-29T05:55:20.838Z,12.38
2019-05-29T05:57:49.266Z,12.39
2019-05-29T06:00:20.706Z,12.34
2019-05-29T06:02:52.219Z,12.46
2019-05-29T06:05:19.318Z,12.55
2019-05-29T06:07:47.722Z,12.52
2019-05-29T06:10:16.395Z,12.57
2019-05-29T06:12:44.777Z,12.64
2019-05-29T06:15:13.322Z,12.70
2019-05-29T06:17:51.427Z,12.84
2019-05-29T06:20:12.203Z,12.96
2019-05-29T06:22:43.625Z,13.02
2019-05-29T06:25:12.368Z,13.05
2019-05-29T06:27:41.342Z,13.25
2019-05-29T06:30:10.362Z,13.46
2019-05-29T06:32:39.473Z,13.74
2019-05-29T06:35:08.067Z,13.91
2019-05-29T06:37:37.561Z,14.11
2019-05-29T06:40:09.592Z,14.39
2019-05-29T06:42:38.148Z,14.60
2019-05-29T06:45:08.905Z,14.79
2019-05-29T06:47:38.614Z,15.12
2019-05-29T06:50:07.605Z,15.55
2019-05-29T06:52:37.117Z,15.84
2019-05-29T06:55:06.041Z,16.06
2019-05-29T06:57:35.892Z,16.23
2019-05-29T07:00:06.873Z,16.30
2019-05-29T07:02:36.393Z,16.20
2019-05-29T07:05:06.307Z,16.17
2019-05-29T07:07:36.029Z,16.13
2019-05-29T07:10:06.637Z,16.04
2019-05-29T07:12:36.296Z,16.07
2019-05-29T07:15:07.994Z,16.10
2019-05-29T07:17:36.435Z,16.01
2019-05-29T07:20:06.246Z,16.07
2019-05-29T07:22:34.667Z,16.51
2019-05-29T07:25:03.438Z,16.74
2019-05-29T07:27:32.098Z,16.77
2019-05-29T07:30:00.501Z,16.88
2019-05-29T07:32:29.193Z,17.30
2019-05-29T07:35:03.766Z,17.39
2019-05-29T07:37:27.759Z,17.42
2019-05-29T07:39:56.560Z,17.28
2019-05-29T07:42:25.078Z,17.26
2019-05-29T07:44:53.476Z,17.33
2019-05-29T07:47:21.989Z,17.63
2019-05-29T07:49:50.447Z,17.89
2019-05-29T07:52:18.784Z,17.97
2019-05-29T07:54:48.054Z,18.12
2019-05-29T07:57:16.576Z,18.56
2019-05-29T07:59:44.987Z,18.87
2019-05-29T08:02:13.390Z,18.67
2019-05-29T08:04:43.018Z,18.36
2019-05-29T08:07:11.535Z,17.96
2019-05-29T08:09:41.281Z,17.77
2019-05-29T08:12:09.738Z,17.67
2019-05-29T08:14:39.560Z,17.70
2019-05-29T08:17:08.160Z,17.75
2019-05-29T08:19:36.563Z,17.92
2019-05-29T08:22:05.102Z,18.16
2019-05-29T08:24:33.512Z,18.43
2019-05-29T08:27:01.904Z,18.67
2019-05-29T08:29:30.336Z,19.01
2019-05-29T08:31:58.736Z,19.39
2019-05-29T08:34:27.556Z,19.38
2019-05-29T08:37:06.280Z,19.02
2019-05-29T08:39:36.226Z,18.65
2019-05-29T08:42:21.249Z,18.39
2019-05-29T08:44:26.544Z,18.28
2019-05-29T08:47:08.495Z,18.22
2019-05-29T08:49:26.210Z,18.15
2019-05-29T08:52:10.489Z,17.98
2019-05-29T08:54:25.027Z,18.14
2019-05-29T08:56:55.123Z,18.06
2019-05-29T08:59:23.531Z,17.81
2019-05-29T09:01:53.716Z,17.79
2019-05-29T09:04:22.096Z,17.79
2019-05-29T09:06:51.189Z,17.87
2019-05-29T09:09:19.679Z,18.00
2019-05-29T09:11:49.883Z,18.27
2019-05-29T09:14:18.234Z,18.56
2019-05-29T09:16:46.629Z,18.75
2019-05-29T09:19:16.247Z,18.94
2019-05-29T09:21:44.720Z,19.13
2019-05-29T09:24:14.628Z,19.39
2019-05-29T09:26:46.345Z,19.61
2019-05-29T09:29:16.742Z,19.86
2019-05-29T09:31:43.527Z,19.95
2019-05-29T09:34:11.935Z,20.11
2019-05-29T09:36:40.353Z,20.26
2019-05-29T09:39:09.130Z,20.57
2019-05-29T09:41:37.781Z,20.53
2019-05-29T09:44:06.177Z,20.28
2019-05-29T09:46:34.593Z,20.33
2019-05-29T09:49:02.980Z,20.65
2019-05-29T09:51:31.395Z,21.39
2019-05-29T09:54:01.537Z,21.85
2019-05-29T09:56:29.919Z,22.07
2019-05-29T09:58:59.816Z,22.26
2019-05-29T10:01:28.583Z,22.61
2019-05-29T10:03:59.670Z,22.68
2019-05-29T10:06:27.164Z,22.55
2019-05-29T10:08:56.270Z,22.36
2019-05-29T10:11:25.307Z,22.21
2019-05-29T10:13:55.154Z,21.99
2019-05-29T10:16:23.848Z,21.74
2019-05-29T10:18:52.243Z,21.54
2019-05-29T10:21:36.309Z,21.46
2019-05-29T10:23:51.102Z,21.38
2019-05-29T10:26:19.510Z,21.42
2019-05-29T10:29:02.047Z,20.79
2019-05-29T10:31:18.058Z,21.01
2019-05-29T10:33:48.152Z,21.01
2019-05-29T10:36:16.780Z,20.90
2019-05-29T10:38:46.396Z,20.77
2019-05-29T10:41:14.966Z,20.70
2019-05-29T10:43:43.376Z,20.61
2019-05-29T10:46:11.765Z,20.53
2019-05-29T10:48:40.196Z,20.55
2019-05-29T10:51:08.585Z,20.56
2019-05-29T10:53:36.991Z,20.75
2019-05-29T10:56:12.476Z,20.94
2019-05-29T10:58:49.649Z,21.03
2019-05-29T11:01:11.035Z,21.13
2019-05-29T11:03:39.442Z,21.30
2019-05-29T11:06:07.854Z,21.40
2019-05-29T11:08:36.259Z,21.51
2019-05-29T11:11:04.899Z,21.74
2019-05-29T11:13:33.319Z,21.71
2019-05-29T11:16:01.718Z,21.61
2019-05-29T11:18:30.142Z,21.53
2019-05-29T11:20:58.969Z,21.76
2019-05-29T11:23:27.489Z,22.04
2019-05-29T11:25:56.040Z,22.29
2019-05-29T11:28:24.434Z,22.32
2019-05-29T11:30:53.797Z,22.42
2019-05-29T11:33:22.971Z,22.29
2019-05-29T11:36:03.235Z,22.43
2019-05-29T11:38:21.871Z,22.54
2019-05-29T11:41:05.465Z,22.56
2019-05-29T11:43:20.547Z,22.42
2019-05-29T11:45:48.947Z,21.86
2019-05-29T11:48:17.342Z,21.64
2019-05-29T11:50:45.752Z,21.23
2019-05-29T11:53:14.145Z,20.67
2019-05-29T11:55:42.547Z,20.53
2019-05-29T11:58:11.008Z,20.37
2019-05-29T12:00:39.501Z,20.26
2019-05-29T12:03:07.921Z,20.42
2019-05-29T12:05:36.333Z,20.36
2019-05-29T12:08:04.927Z,20.45
2019-05-29T12:10:33.332Z,20.51
2019-05-29T12:13:01.813Z,20.76
2019-05-29T12:15:30.225Z,21.07
2019-05-29T12:18:19.994Z,21.36
2019-05-29T12:20:29.268Z,21.68
2019-05-29T12:23:19.798Z,21.78
2019-05-29T12:25:27.888Z,21.91
2019-05-29T12:27:57.363Z,21.92
2019-05-29T12:30:26.125Z,22.14
2019-05-29T12:32:54.793Z,22.57
2019-05-29T12:35:23.513Z,22.38
2019-05-29T12:37:53.083Z,22.32
2019-05-29T12:40:21.774Z,22.36
2019-05-29T12:42:50.207Z,22.38
2019-05-29T12:45:20.573Z,22.35
2019-05-29T12:47:49.222Z,22.31
2019-05-29T12:50:19.522Z,22.17
2019-05-29T12:55:21.259Z,22.45
2019-05-29T12:57:49.649Z,22.45
2019-05-29T13:00:19.373Z,22.51
2019-05-29T13:02:48.070Z,22.48
2019-05-29T13:05:20.432Z,22.33
2019-05-29T13:07:47.179Z,22.43
2019-05-29T13:10:29.932Z,22.66
2019-05-29T13:12:46.762Z,23.10
2019-05-29T13:15:15.988Z,23.21
2019-05-29T13:17:44.508Z,23.08
2019-05-29T13:20:21.067Z,23.04
2019-05-29T13:22:43.555Z,23.27
2019-05-29T13:25:13.903Z,23.34
2019-05-29T13:27:42.316Z,23.35
2019-05-29T13:30:12.585Z,23.33
2019-05-29T13:32:41.356Z,23.44
2019-05-29T13:35:11.546Z,23.72
2019-05-29T13:37:39.983Z,23.74
2019-05-29T13:40:08.700Z,23.47
2019-05-29T13:42:37.159Z,23.11
2019-05-29T13:45:15.918Z,22.78
2019-05-29T13:47:37.220Z,22.61
2019-05-29T13:50:11.750Z,22.53
2019-05-29T13:52:38.073Z,22.31
2019-05-29T13:55:07.904Z,22.28
2019-05-29T13:57:39.565Z,22.31
2019-05-29T14:00:31.681Z,22.42
2019-05-29T14:02:40.001Z,22.51
2019-05-29T14:05:09.036Z,22.20
2019-05-29T14:07:37.527Z,22.13
2019-05-29T14:10:11.878Z,22.18
2019-05-29T14:12:48.327Z,22.22
2019-05-29T14:15:27.840Z,22.21
2019-05-29T14:18:00.597Z,22.45
2019-05-29T14:20:41.478Z,22.54
2019-05-29T14:23:09.926Z,22.57
2019-05-29T14:25:41.659Z,22.59
2019-05-29T14:28:10.082Z,22.33
2019-05-29T14:30:38.543Z,22.27
2019-05-29T14:33:09.386Z,22.30
2019-05-29T14:35:37.095Z,22.21
2019-05-29T14:38:09.846Z,22.24
2019-05-29T14:40:35.618Z,22.14
2019-05-29T14:43:08.133Z,22.00
2019-05-29T14:45:34.226Z,21.83
2019-05-29T14:48:03.968Z,21.84
2019-05-29T14:50:32.516Z,21.80
2019-05-29T14:53:02.770Z,21.73
2019-05-29T14:55:31.304Z,21.79
2019-05-29T14:57:59.701Z,21.85
2019-05-29T15:00:29.148Z,21.85
2019-05-29T15:02:57.557Z,21.88
2019-05-29T15:05:26.021Z,21.91
2019-05-29T15:07:54.457Z,21.97
2019-05-29T15:10:27.553Z,22.02
2019-05-29T15:12:53.033Z,21.98
2019-05-29T15:15:21.696Z,21.94
2019-05-29T15:17:50.118Z,21.77
2019-05-29T15:20:20.032Z,21.67
2019-05-29T15:22:48.434Z,21.47
2019-05-29T15:25:23.997Z,21.33
2019-05-29T15:27:48.514Z,21.44
2019-05-29T15:30:23.095Z,21.54
2019-05-29T15:32:48.412Z,21.67
2019-05-29T15:35:19.811Z,21.82
2019-05-29T15:37:47.452Z,21.82
2019-05-29T15:42:43.556Z,21.76
2019-05-29T15:45:14.073Z,21.42
2019-05-29T15:47:42.600Z,21.45
2019-05-29T15:50:13.387Z,21.46
2019-05-29T15:52:42.112Z,21.44
2019-05-29T15:55:27.406Z,21.41
2019-05-29T15:57:41.099Z,21.41
2019-05-29T16:00:11.365Z,21.38
2019-05-29T16:02:39.976Z,21.20
2019-05-29T16:05:09.134Z,21.15
2019-05-29T16:07:37.535Z,21.11
2019-05-29T16:10:13.088Z,21.10
2019-05-29T16:12:41.988Z,21.12
2019-05-29T16:15:11.480Z,21.14
2019-05-29T16:17:40.565Z,21.11
2019-05-29T16:20:10.446Z,21.04
2019-05-29T16:22:39.064Z,20.94
2019-05-29T16:25:08.684Z,20.69
2019-05-29T16:27:37.102Z,20.53
2019-05-29T16:30:11.406Z,20.13
2019-05-29T16:32:39.984Z,19.92
2019-05-29T16:35:09.026Z,19.88
2019-05-29T16:37:37.489Z,19.80
2019-05-29T16:40:11.831Z,19.76
2019-05-29T16:42:40.372Z,19.77
2019-05-29T16:45:10.013Z,19.80
2019-05-29T16:47:38.842Z,19.69
2019-05-29T16:50:08.309Z,19.76
2019-05-29T16:52:37.075Z,19.66
2019-05-29T16:55:08.113Z,19.52
2019-05-29T16:57:36.540Z,19.51
2019-05-29T17:00:08.007Z,19.46
2019-05-29T17:02:36.461Z,19.40
2019-05-29T17:05:06.974Z,19.37
2019-05-29T17:07:35.361Z,19.44
2019-05-29T17:10:05.412Z,19.57
2019-05-29T17:12:33.820Z,19.63
2019-05-29T17:15:02.239Z,19.63
2019-05-29T17:17:31.518Z,19.63
2019-05-29T17:19:59.987Z,19.60
2019-05-29T17:22:28.381Z,19.61
2019-05-29T17:24:56.774Z,19.60
2019-05-29T17:27:25.280Z,19.60
2019-05-29T17:29:53.659Z,19.52
2019-05-29T17:32:23.230Z,19.45
2019-05-29T17:34:51.694Z,19.40
2019-05-29T17:37:21.034Z,19.35
2019-05-29T17:39:49.473Z,19.36
2019-05-29T17:42:18.185Z,19.36
2019-05-29T17:44:46.587Z,19.41
2019-05-29T17:47:15.586Z,19.47
2019-05-29T17:49:44.175Z,19.49
2019-05-29T17:52:12.582Z,19.62
2019-05-29T17:54:40.983Z,19.65
2019-05-29T17:57:09.537Z,19.69
2019-05-29T17:59:37.888Z,19.76
2019-05-29T18:02:06.589Z,19.84
2019-05-29T18:04:34.994Z,19.86
2019-05-29T18:07:03.410Z,19.96
2019-05-29T18:09:31.821Z,20.01
2019-05-29T18:12:00.196Z,20.01
2019-05-29T18:14:28.630Z,20.02
2019-05-29T18:16:57.029Z,20.01
2019-05-29T18:19:25.946Z,19.98
2019-05-29T18:21:54.310Z,19.96
2019-05-29T18:24:23.795Z,19.97
2019-05-29T18:26:52.346Z,20.01
2019-05-29T18:29:20.739Z,20.02
2019-05-29T18:31:49.136Z,20.11
2019-05-29T18:34:18.712Z,20.10
2019-05-29T18:36:47.245Z,20.06
2019-05-29T18:39:15.649Z,20.04
2019-05-29T18:41:44.036Z,19.98
2019-05-29T18:44:12.743Z,19.94
2019-05-29T18:46:41.131Z,19.91
2019-05-29T18:49:14.201Z,19.85
2019-05-29T18:51:39.659Z,19.75
2019-05-29T18:54:08.060Z,19.64
2019-05-29T18:56:36.462Z,19.48
2019-05-29T18:59:05.021Z,19.35
2019-05-29T19:01:33.424Z,19.22
2019-05-29T19:04:01.836Z,19.00
2019-05-29T19:06:30.232Z,18.79
2019-05-29T19:08:58.636Z,18.61
2019-05-29T19:11:28.019Z,18.37
2019-05-29T19:13:56.531Z,18.21
2019-05-29T19:16:26.323Z,18.05
2019-05-29T19:18:54.817Z,17.86
2019-05-29T19:21:24.305Z,17.69
2019-05-29T19:23:52.796Z,17.55
2019-05-29T19:26:22.551Z,17.44
2019-05-29T19:28:51.177Z,17.29
2019-05-29T19:31:20.027Z,17.22
2019-05-29T19:33:48.433Z,17.08
2019-05-29T19:36:17.080Z,16.91
2019-05-29T19:38:45.487Z,16.72
2019-05-29T19:41:14.308Z,16.57
2019-05-29T19:43:42.722Z,16.44
2019-05-29T19:46:11.127Z,16.29
2019-05-29T19:48:39.916Z,16.10
2019-05-29T19:51:08.308Z,15.96
2019-05-29T19:53:36.719Z,15.78
2019-05-29T19:56:05.861Z,15.63
2019-05-29T19:58:34.256Z,15.59
2019-05-29T20:01:02.699Z,15.64
2019-05-29T20:03:31.094Z,15.67
2019-05-29T20:05:59.502Z,15.67
2019-05-29T20:08:32.303Z,15.65
2019-05-29T20:10:58.041Z,15.48
2019-05-29T20:13:27.558Z,15.15
2019-05-29T20:15:56.127Z,14.83
2019-05-29T20:18:24.862Z,14.55
2019-05-29T20:20:53.273Z,14.35
2019-05-29T20:23:21.672Z,14.25
2019-05-29T20:25:50.084Z,14.15
2019-05-29T20:28:18.487Z,13.98
2019-05-29T20:30:46.949Z,13.84
2019-05-29T20:33:15.348Z,13.72
2019-05-29T20:35:43.763Z,13.60
2019-05-29T20:38:12.169Z,13.47
2019-05-29T20:40:41.391Z,13.38
2019-05-29T20:43:09.748Z,13.28
2019-05-29T20:45:38.176Z,13.15
2019-05-29T20:48:06.618Z,13.02
2019-05-29T20:50:35.036Z,12.90
2019-05-29T20:53:03.473Z,12.76
2019-05-29T20:55:31.835Z,12.66
2019-05-29T20:58:00.247Z,12.65
2019-05-29T21:00:28.641Z,12.63
2019-05-29T21:02:57.054Z,12.53
2019-05-29T21:05:25.475Z,12.43
2019-05-29T21:07:53.881Z,12.30
2019-05-29T21:10:22.358Z,12.21
2019-05-29T21:12:50.754Z,12.20
2019-05-29T21:15:19.244Z,12.23
2019-05-29T21:17:47.643Z,12.16
2019-05-29T21:20:16.203Z,12.11
2019-05-29T21:22:44.977Z,12.10
2019-05-29T21:25:18.666Z,12.07
2019-05-29T21:27:48.755Z,11.95
2019-05-29T21:30:17.217Z,11.81
2019-05-29T21:32:46.043Z,11.67
2019-05-29T21:35:14.770Z,11.49
2019-05-29T21:37:44.324Z,11.41
2019-05-29T21:40:13.232Z,11.36
2019-05-29T21:42:42.868Z,11.33
2019-05-29T21:45:11.652Z,11.30
2019-05-29T21:47:40.983Z,11.24
2019-05-29T21:50:10.393Z,11.18
2019-05-29T21:52:39.481Z,11.12
2019-05-29T21:55:08.235Z,11.08
2019-05-29T21:57:37.732Z,11.06
2019-05-29T22:00:12.878Z,11.02
2019-05-29T22:02:42.305Z,10.99
2019-05-29T22:05:11.581Z,10.92
2019-05-29T22:07:40.672Z,10.81
2019-05-29T22:10:10.231Z,10.70
2019-05-29T22:12:38.645Z,10.62
2019-05-29T22:15:07.327Z,10.53
2019-05-29T22:17:35.751Z,10.48
2019-05-29T22:20:06.765Z,10.44
2019-05-29T22:22:35.171Z,10.37
2019-05-29T22:25:07.023Z,10.39
2019-05-29T22:27:35.917Z,10.38
2019-05-29T22:30:06.767Z,10.32
2019-05-29T22:32:35.382Z,10.27
2019-05-29T22:35:05.363Z,10.26
2019-05-29T22:37:33.861Z,10.30
2019-05-29T22:40:02.541Z,10.27
2019-05-29T22:42:30.935Z,10.12
2019-05-29T22:44:59.866Z,9.95
2019-05-29T22:47:28.334Z,9.81
2019-05-29T22:49:57.934Z,9.70
2019-05-29T22:52:26.424Z,9.66
2019-05-29T22:54:55.790Z,9.65
2019-05-29T22:57:24.358Z,9.67
2019-05-29T22:59:53.939Z,9.78
2019-05-29T23:02:22.450Z,9.81
2019-05-29T23:04:52.069Z,9.77
2019-05-29T23:07:20.519Z,9.67
2019-05-29T23:09:48.940Z,9.58
2019-05-29T23:12:17.334Z,9.56
2019-05-29T23:14:45.727Z,9.50
2019-05-29T23:17:14.143Z,9.46
2019-05-29T23:19:42.559Z,9.33
2019-05-29T23:22:10.951Z,9.24
2019-05-29T23:24:39.387Z,9.16
2019-05-29T23:27:07.771Z,9.11
2019-05-29T23:29:48.350Z,9.10
2019-05-29T23:32:06.288Z,9.12
2019-05-29T23:34:34.687Z,9.10
2019-05-29T23:37:03.410Z,9.09
2019-05-29T23:39:31.841Z,9.09
2019-05-29T23:42:01.481Z,9.05
2019-05-29T23:44:30.016Z,9.06
2019-05-29T23:46:59.498Z,9.07
2019-05-29T23:49:27.993Z,9.09
2019-05-29T23:51:57.533Z,9.11
2019-05-29T23:54:25.986Z,9.10
2019-05-29T23:56:55.732Z,9.16
2019-05-29T23:59:24.275Z,9.36
